Time;durP1;ratioP1;P1;durP2;ratioP2;P2;SDS_P1;SDS_P2;PMS_P1;PMS_P2;Temp;Humidity;BMP_temperature;BMP_pressure;BME280_temperature;BME280_humidity;BME280_pressure;Samples;Min_cycle;Max_cycle;Signal;HPM_P1;HPM_P2
2023/01/28 00:01:04;;;;;;;;;24.25;17.00;;;;;;;;5105677;27;61812;-74
2023/01/28 00:03:30;;;;;;;;;30.00;20.00;;;;;;;;5105700;27;61754;-73
2023/01/28 00:06:00;;;;;;;;;25.25;18.50;;;;;;;;5106256;27;61731;-73
2023/01/28 00:08:25;;;;;;;;;17.50;14.50;;;;;;;;5104954;27;61845;-73
2023/01/28 00:10:51;;;;;;;;;20.00;17.25;;;;;;;;5104416;27;61810;-73
2023/01/28 00:13:16;;;;;;;;;25.50;13.50;;;;;;;;5105410;27;61954;-73
2023/01/28 00:15:41;;;;;;;;;21.25;15.75;;;;;;;;5103861;27;61894;-73
2023/01/28 00:18:06;;;;;;;;;19.25;16.50;;;;;;;;5104631;27;62810;-73
2023/01/28 00:20:32;;;;;;;;;23.25;17.00;;;;;;;;5104242;27;61880;-73
2023/01/28 00:22:57;;;;;;;;;27.25;19.75;;;;;;;;5104340;27;62045;-73
2023/01/28 00:25:22;;;;;;;;;27.50;16.00;;;;;;;;5105675;27;61814;-73
2023/01/28 00:27:48;;;;;;;;;12.00;11.00;;;;;;;;5104618;27;62154;-73
2023/01/28 00:30:13;;;;;;;;;21.25;15.25;;;;;;;;5103629;27;61886;-73
2023/01/28 00:32:39;;;;;;;;;19.00;16.50;;;;;;;;5105287;27;61744;-73
2023/01/28 00:35:05;;;;;;;;;23.50;15.50;;;;;;;;5105808;27;61781;-73
2023/01/28 00:37:30;;;;;;;;;12.50;7.00;;;;;;;;5104710;27;61838;-73
2023/01/28 00:39:55;;;;;;;;;23.25;15.50;;;;;;;;5104598;27;61808;-73
2023/01/28 00:42:20;;;;;;;;;24.75;17.50;;;;;;;;5105075;27;62056;-73
2023/01/28 00:44:46;;;;;;;;;27.00;18.75;;;;;;;;5105080;27;61664;-74
2023/01/28 00:47:11;;;;;;;;;18.25;11.25;;;;;;;;5104736;27;61690;-73
2023/01/28 00:49:36;;;;;;;;;14.25;13.00;;;;;;;;5104988;27;61963;-73
2023/01/28 00:52:02;;;;;;;;;25.50;14.50;;;;;;;;5105208;27;62105;-73
2023/01/28 00:54:28;;;;;;;;;27.00;18.50;;;;;;;;5105374;27;62103;-73
2023/01/28 00:56:53;;;;;;;;;23.00;17.25;;;;;;;;5103912;27;61949;-73
2023/01/28 00:59:18;;;;;;;;;18.00;13.50;;;;;;;;5103230;27;61917;-72
2023/01/28 01:01:44;;;;;;;;;13.00;11.75;;;;;;;;5103349;27;62353;-73
2023/01/28 01:04:09;;;;;;;;;14.50;10.75;;;;;;;;5105122;27;61681;-73
2023/01/28 01:06:36;;;;;;;;;18.50;15.25;;;;;;;;5104615;27;61889;-73
2023/01/28 01:09:03;;;;;;;;;14.75;13.50;;;;;;;;5104208;27;61858;-73
2023/01/28 01:11:28;;;;;;;;;20.25;13.75;;;;;;;;5104674;27;61802;-73
2023/01/28 01:13:55;;;;;;;;;16.75;11.75;;;;;;;;5104485;27;61747;-73
2023/01/28 01:16:21;;;;;;;;;17.25;13.50;;;;;;;;5104598;27;61777;-73
2023/01/28 01:18:46;;;;;;;;;15.00;11.00;;;;;;;;5103099;27;61722;-73
2023/01/28 01:21:13;;;;;;;;;20.50;12.75;;;;;;;;5104795;27;61671;-73
2023/01/28 01:23:39;;;;;;;;;17.50;14.75;;;;;;;;5104912;27;61643;-73
2023/01/28 01:26:05;;;;;;;;;21.50;18.00;;;;;;;;5103783;27;62756;-73
2023/01/28 01:28:30;;;;;;;;;14.25;12.25;;;;;;;;5103995;27;61871;-73
2023/01/28 01:31:03;;;;;;;;;18.25;14.00;;;;;;;;5103498;27;61801;-73
2023/01/28 01:33:29;;;;;;;;;25.75;18.00;;;;;;;;5104566;27;61695;-72
2023/01/28 01:35:55;;;;;;;;;19.75;11.00;;;;;;;;5102583;27;61845;-73
2023/01/28 01:38:20;;;;;;;;;26.00;17.75;;;;;;;;5102452;27;61856;-73
2023/01/28 01:40:46;;;;;;;;;16.75;14.00;;;;;;;;5104530;27;61733;-73
2023/01/28 01:43:15;;;;;;;;;23.50;14.00;;;;;;;;5102206;27;61824;-73
2023/01/28 01:45:40;;;;;;;;;16.75;13.50;;;;;;;;5103658;27;61827;-73
2023/01/28 01:48:17;;;;;;;;;20.75;10.75;;;;;;;;5102943;27;62028;-74
2023/01/28 01:50:47;;;;;;;;;23.25;13.50;;;;;;;;5104479;27;61921;-73
2023/01/28 01:53:15;;;;;;;;;14.75;11.00;;;;;;;;5104415;27;61747;-73
2023/01/28 01:55:42;;;;;;;;;22.75;17.25;;;;;;;;5102074;27;62048;-73
2023/01/28 01:58:10;;;;;;;;;19.00;10.25;;;;;;;;5103171;27;61867;-74
2023/01/28 02:00:35;;;;;;;;;20.00;11.75;;;;;;;;5104297;27;61925;-73
2023/01/28 02:03:01;;;;;;;;;13.50;10.00;;;;;;;;5102578;27;62208;-73
2023/01/28 02:05:26;;;;;;;;;24.00;12.50;;;;;;;;5103373;27;61859;-73
2023/01/28 02:07:54;;;;;;;;;18.25;14.50;;;;;;;;5103431;27;61955;-73
2023/01/28 02:10:20;;;;;;;;;17.75;13.75;;;;;;;;5104270;27;61974;-73
2023/01/28 02:12:56;;;;;;;;;23.25;15.50;;;;;;;;5103355;27;61907;-73
2023/01/28 02:15:23;;;;;;;;;18.00;13.75;;;;;;;;5103172;27;61704;-74
2023/01/28 02:17:51;;;;;;;;;21.75;12.25;;;;;;;;5103624;27;61913;-73
2023/01/28 02:20:39;;;;;;;;;28.00;15.75;;;;;;;;5103862;27;61719;-73
2023/01/28 02:23:08;;;;;;;;;18.25;18.00;;;;;;;;5080722;28;62089;-72
2023/01/28 02:25:35;;;;;;;;;21.25;14.50;;;;;;;;5062509;28;64667;-73
2023/01/28 02:28:19;;;;;;;;;15.25;14.00;;;;;;;;5080230;28;61925;-73
2023/01/28 02:30:52;;;;;;;;;11.25;11.00;;;;;;;;5080865;28;62121;-73
2023/01/28 02:33:21;;;;;;;;;20.00;15.00;;;;;;;;5097836;27;62043;-73
2023/01/28 02:35:48;;;;;;;;;20.50;13.75;;;;;;;;5080244;28;61903;-73
2023/01/28 02:38:27;;;;;;;;;20.00;14.75;;;;;;;;5079468;28;61906;-73
2023/01/28 02:41:08;;;;;;;;;15.50;11.25;;;;;;;;5063014;28;61975;-73
2023/01/28 02:43:36;;;;;;;;;25.50;15.00;;;;;;;;5063499;28;62231;-73
2023/01/28 02:49:10;;;;;;;;;24.75;13.50;;;;;;;;5076394;28;62033;-73
2023/01/28 02:51:58;;;;;;;;;18.50;15.00;;;;;;;;5080377;28;61883;-73
2023/01/28 02:54:39;;;;;;;;;16.75;8.25;;;;;;;;5079670;28;61927;-73
2023/01/28 02:57:21;;;;;;;;;29.00;15.75;;;;;;;;5079452;28;61868;-73
2023/01/28 02:59:56;;;;;;;;;16.00;10.75;;;;;;;;5088405;27;61748;-73
2023/01/28 03:02:21;;;;;;;;;20.75;13.00;;;;;;;;5101480;27;62108;-73
2023/01/28 03:04:50;;;;;;;;;25.50;17.50;;;;;;;;5103264;27;61733;-73
2023/01/28 03:07:16;;;;;;;;;22.00;14.00;;;;;;;;5101200;27;65218;-73
2023/01/28 03:09:44;;;;;;;;;23.00;14.00;;;;;;;;5100617;27;61830;-73
2023/01/28 03:37:14;;;;;;;;;32.00;18.75;;;;;;;;5102913;27;61878;-72
2023/01/28 03:39:39;;;;;;;;;19.50;14.25;;;;;;;;5101011;27;62517;-73
2023/01/28 03:42:06;;;;;;;;;22.00;17.50;;;;;;;;5100900;27;62009;-73
2023/01/28 03:44:52;;;;;;;;;20.75;11.75;;;;;;;;5101184;27;61696;-73
2023/01/28 03:47:21;;;;;;;;;17.00;14.25;;;;;;;;5102890;27;61743;-73
2023/01/28 03:49:48;;;;;;;;;20.00;10.00;;;;;;;;5102140;27;61712;-73
2023/01/28 03:52:14;;;;;;;;;25.75;14.00;;;;;;;;5101871;27;61700;-73
2023/01/28 03:54:39;;;;;;;;;22.25;14.00;;;;;;;;5104669;27;61884;-73
2023/01/28 03:57:05;;;;;;;;;21.25;14.25;;;;;;;;5104702;27;62099;-74
2023/01/28 03:59:30;;;;;;;;;27.00;17.50;;;;;;;;5105143;27;62756;-72
2023/01/28 04:01:56;;;;;;;;;20.25;12.50;;;;;;;;5104742;27;61819;-73
2023/01/28 04:04:24;;;;;;;;;16.25;10.25;;;;;;;;5104387;27;62024;-73
2023/01/28 04:06:50;;;;;;;;;17.00;11.25;;;;;;;;5105717;27;61883;-73
2023/01/28 04:09:15;;;;;;;;;21.25;16.50;;;;;;;;5103506;27;63883;-73
2023/01/28 04:11:41;;;;;;;;;23.00;14.50;;;;;;;;5103979;27;62255;-73
2023/01/28 04:14:06;;;;;;;;;21.75;12.50;;;;;;;;5104045;27;61826;-73
2023/01/28 04:16:31;;;;;;;;;15.25;13.25;;;;;;;;5105893;27;61831;-73
2023/01/28 04:18:58;;;;;;;;;27.75;16.25;;;;;;;;5105304;27;62181;-72
2023/01/28 04:21:23;;;;;;;;;15.75;13.00;;;;;;;;5103815;27;61775;-73
2023/01/28 04:23:49;;;;;;;;;15.25;11.75;;;;;;;;5105907;27;62101;-73
2023/01/28 04:26:14;;;;;;;;;18.75;14.25;;;;;;;;5105741;27;62156;-73
2023/01/28 04:28:39;;;;;;;;;21.25;14.50;;;;;;;;5103707;27;63233;-72
2023/01/28 04:31:04;;;;;;;;;18.25;12.25;;;;;;;;5105574;27;61890;-73
2023/01/28 04:33:30;;;;;;;;;17.25;9.75;;;;;;;;5105211;27;61777;-73
2023/01/28 04:35:55;;;;;;;;;19.50;16.75;;;;;;;;5104137;27;61797;-73
2023/01/28 04:38:21;;;;;;;;;23.50;15.75;;;;;;;;5104055;27;62149;-73
2023/01/28 04:40:53;;;;;;;;;18.75;14.50;;;;;;;;5105426;27;61912;-73
2023/01/28 04:43:18;;;;;;;;;23.75;16.00;;;;;;;;5104945;27;61968;-73
2023/01/28 04:45:44;;;;;;;;;19.50;15.00;;;;;;;;5104255;27;61859;-73
2023/01/28 04:48:09;;;;;;;;;16.75;10.75;;;;;;;;5104575;27;61955;-73
2023/01/28 04:50:35;;;;;;;;;20.00;15.00;;;;;;;;5103332;27;61947;-72
2023/01/28 04:53:00;;;;;;;;;19.25;13.50;;;;;;;;5103895;27;61893;-73
2023/01/28 04:55:25;;;;;;;;;21.75;17.25;;;;;;;;5105013;27;61785;-73
2023/01/28 04:57:51;;;;;;;;;25.75;17.00;;;;;;;;5103042;27;63723;-73
2023/01/28 05:00:16;;;;;;;;;17.00;12.75;;;;;;;;5105070;27;61832;-73
2023/01/28 05:02:42;;;;;;;;;19.00;14.00;;;;;;;;5104904;27;61849;-73
2023/01/28 05:05:10;;;;;;;;;27.50;17.00;;;;;;;;5103382;27;62150;-73
2023/01/28 05:07:35;;;;;;;;;20.25;14.50;;;;;;;;5104367;27;61909;-73
2023/01/28 05:10:01;;;;;;;;;19.50;14.50;;;;;;;;5104672;27;61775;-73
2023/01/28 05:12:26;;;;;;;;;15.75;13.75;;;;;;;;5102987;27;61707;-73
2023/01/28 05:14:51;;;;;;;;;23.25;20.25;;;;;;;;5104937;27;61670;-72
2023/01/28 05:17:17;;;;;;;;;23.75;19.25;;;;;;;;5104407;27;61938;-73
2023/01/28 05:19:42;;;;;;;;;16.00;14.50;;;;;;;;5104127;27;61924;-73
2023/01/28 05:22:08;;;;;;;;;22.00;17.75;;;;;;;;5105015;27;61704;-73
2023/01/28 05:24:33;;;;;;;;;24.50;17.75;;;;;;;;5104553;27;61779;-73
2023/01/28 05:26:58;;;;;;;;;32.75;16.50;;;;;;;;5103786;27;61817;-73
2023/01/28 05:29:23;;;;;;;;;24.25;19.50;;;;;;;;5103288;27;61833;-73
2023/01/28 05:31:49;;;;;;;;;21.00;17.50;;;;;;;;5104483;27;61741;-73
2023/01/28 05:34:14;;;;;;;;;22.50;16.75;;;;;;;;5102836;27;61778;-73
2023/01/28 05:36:42;;;;;;;;;22.25;19.50;;;;;;;;5103941;27;61905;-73
2023/01/28 05:39:07;;;;;;;;;21.50;17.00;;;;;;;;5103574;27;61664;-73
2023/01/28 05:41:33;;;;;;;;;25.50;17.25;;;;;;;;5104219;27;61874;-73
2023/01/28 05:43:59;;;;;;;;;21.00;18.00;;;;;;;;5104600;27;61664;-73
2023/01/28 05:46:24;;;;;;;;;26.00;14.25;;;;;;;;5102128;27;64760;-73
2023/01/28 05:48:49;;;;;;;;;27.75;14.00;;;;;;;;5103898;27;61710;-73
2023/01/28 05:51:15;;;;;;;;;20.00;15.25;;;;;;;;5104477;27;61886;-73
2023/01/28 05:53:40;;;;;;;;;20.75;17.25;;;;;;;;5103962;27;61782;-72
2023/01/28 05:56:06;;;;;;;;;22.50;17.50;;;;;;;;5103702;27;62736;-73
2023/01/28 05:58:31;;;;;;;;;30.50;18.25;;;;;;;;5103637;27;61765;-73
2023/01/28 06:00:57;;;;;;;;;31.75;18.75;;;;;;;;5103745;27;61974;-72
2023/01/28 06:03:22;;;;;;;;;22.50;17.00;;;;;;;;5103745;27;62111;-72
2023/01/28 06:05:47;;;;;;;;;16.75;16.25;;;;;;;;5103375;27;62776;-72
2023/01/28 06:08:13;;;;;;;;;19.75;13.75;;;;;;;;5103438;27;61870;-73
2023/01/28 06:10:38;;;;;;;;;20.00;12.25;;;;;;;;5102667;27;61758;-72
2023/01/28 06:13:03;;;;;;;;;28.75;17.75;;;;;;;;5103372;27;61803;-72
2023/01/28 06:15:28;;;;;;;;;22.00;16.50;;;;;;;;5102705;27;62856;-72
2023/01/28 06:17:54;;;;;;;;;23.00;16.25;;;;;;;;5101985;27;61889;-72
2023/01/28 06:20:19;;;;;;;;;10.25;9.50;;;;;;;;5103900;27;61887;-72
2023/01/28 06:22:44;;;;;;;;;22.50;18.00;;;;;;;;5103892;27;62047;-72
2023/01/28 06:25:10;;;;;;;;;37.00;22.50;;;;;;;;5103104;27;61826;-73
2023/01/28 06:27:35;;;;;;;;;22.25;15.50;;;;;;;;5102900;27;62004;-73
2023/01/28 06:30:00;;;;;;;;;22.00;17.25;;;;;;;;5103875;27;61888;-72
2023/01/28 06:32:26;;;;;;;;;18.25;16.50;;;;;;;;5103379;27;61708;-72
2023/01/28 06:34:51;;;;;;;;;23.25;18.25;;;;;;;;5102642;27;61785;-73
2023/01/28 06:37:17;;;;;;;;;26.50;16.75;;;;;;;;5102329;27;61832;-73
2023/01/28 06:39:42;;;;;;;;;23.00;17.25;;;;;;;;5102509;27;61859;-74
2023/01/28 06:42:07;;;;;;;;;18.25;14.75;;;;;;;;5103347;27;61703;-73
2023/01/28 06:44:33;;;;;;;;;25.25;15.00;;;;;;;;5102764;27;61714;-72
2023/01/28 06:46:58;;;;;;;;;28.25;18.75;;;;;;;;5103026;27;61971;-73
2023/01/28 06:49:23;;;;;;;;;20.75;14.75;;;;;;;;5102261;27;61770;-73
2023/01/28 06:51:49;;;;;;;;;19.50;14.75;;;;;;;;5103576;27;61732;-73
2023/01/28 06:54:14;;;;;;;;;24.00;15.50;;;;;;;;5101167;27;63773;-73
2023/01/28 06:56:39;;;;;;;;;19.50;17.50;;;;;;;;5103054;27;62092;-73
2023/01/28 06:59:04;;;;;;;;;21.50;14.75;;;;;;;;5102008;27;61963;-72
2023/01/28 07:01:30;;;;;;;;;17.50;14.00;;;;;;;;5103026;27;62046;-73
2023/01/28 07:03:55;;;;;;;;;21.50;11.75;;;;;;;;5102486;27;61703;-73
2023/01/28 07:06:20;;;;;;;;;29.50;15.75;;;;;;;;5103501;27;61686;-73
2023/01/28 07:08:46;;;;;;;;;20.50;17.75;;;;;;;;5102408;27;62001;-73
2023/01/28 07:11:11;;;;;;;;;18.00;13.75;;;;;;;;5102080;27;61825;-72
2023/01/28 07:13:36;;;;;;;;;27.75;17.25;;;;;;;;5101901;27;61826;-72
2023/01/28 07:16:02;;;;;;;;;18.25;14.00;;;;;;;;5100829;27;61936;-73
2023/01/28 07:18:28;;;;;;;;;26.75;16.75;;;;;;;;5103178;27;61830;-73
2023/01/28 07:20:53;;;;;;;;;17.00;12.50;;;;;;;;5101452;27;62165;-73
2023/01/28 07:23:18;;;;;;;;;22.75;13.25;;;;;;;;5102645;27;62729;-73
2023/01/28 07:25:44;;;;;;;;;17.25;14.50;;;;;;;;5102908;27;61714;-73
2023/01/28 07:28:10;;;;;;;;;17.75;11.75;;;;;;;;5103846;27;61909;-73
2023/01/28 07:30:35;;;;;;;;;21.50;17.25;;;;;;;;5106148;27;61735;-73
2023/01/28 07:33:01;;;;;;;;;22.50;16.50;;;;;;;;5105634;27;61930;-73
2023/01/28 07:35:26;;;;;;;;;28.25;17.75;;;;;;;;5106563;27;61814;-72
2023/01/28 07:37:53;;;;;;;;;28.50;19.50;;;;;;;;5104966;27;61644;-73
2023/01/28 07:40:18;;;;;;;;;31.00;17.75;;;;;;;;5106348;27;61687;-73
2023/01/28 07:42:43;;;;;;;;;16.00;12.75;;;;;;;;5103639;27;64775;-73
2023/01/28 07:45:09;;;;;;;;;21.75;17.00;;;;;;;;5105827;27;61716;-73
2023/01/28 07:47:34;;;;;;;;;18.00;16.00;;;;;;;;5106294;27;61747;-73
2023/01/28 07:49:59;;;;;;;;;29.25;16.75;;;;;;;;5106321;27;62174;-73
2023/01/28 07:52:24;;;;;;;;;26.00;17.25;;;;;;;;5105380;27;62843;-73
2023/01/28 07:54:50;;;;;;;;;25.00;14.00;;;;;;;;5105921;27;61766;-73
2023/01/28 07:57:22;;;;;;;;;19.00;13.50;;;;;;;;5105964;27;61724;-72
2023/01/28 07:59:47;;;;;;;;;18.50;13.75;;;;;;;;5104175;27;61816;-73
2023/01/28 08:02:13;;;;;;;;;17.00;13.50;;;;;;;;5105429;27;62784;-73
2023/01/28 08:04:39;;;;;;;;;20.75;16.00;;;;;;;;5105765;27;61882;-73
2023/01/28 08:07:05;;;;;;;;;23.50;16.50;;;;;;;;5105743;27;61672;-73
2023/01/28 08:09:33;;;;;;;;;22.25;18.50;;;;;;;;5105785;27;61975;-73
2023/01/28 08:11:58;;;;;;;;;24.50;19.00;;;;;;;;5104560;27;61736;-73
2023/01/28 08:14:23;;;;;;;;;20.75;17.50;;;;;;;;5105314;27;61774;-73
2023/01/28 08:16:49;;;;;;;;;25.75;15.75;;;;;;;;5105608;27;61830;-73
2023/01/28 08:19:16;;;;;;;;;15.75;14.00;;;;;;;;5106071;27;61930;-74
2023/01/28 08:21:42;;;;;;;;;27.75;16.00;;;;;;;;5104995;27;62608;-73
2023/01/28 08:24:07;;;;;;;;;23.00;18.75;;;;;;;;5105201;27;61703;-73
2023/01/28 08:26:32;;;;;;;;;23.50;18.00;;;;;;;;5105835;27;61815;-73
2023/01/28 08:28:57;;;;;;;;;29.00;18.50;;;;;;;;5104865;27;61906;-73
2023/01/28 08:31:23;;;;;;;;;29.75;19.00;;;;;;;;5105022;27;61706;-73
2023/01/28 08:33:48;;;;;;;;;22.50;17.50;;;;;;;;5103831;27;61730;-73
2023/01/28 08:36:14;;;;;;;;;18.50;14.25;;;;;;;;5103830;27;61748;-73
2023/01/28 08:38:39;;;;;;;;;27.50;17.75;;;;;;;;5104693;27;61734;-72
2023/01/28 08:41:05;;;;;;;;;22.75;15.75;;;;;;;;5103176;27;63177;-73
2023/01/28 08:43:30;;;;;;;;;19.25;17.00;;;;;;;;5104408;27;61804;-73
2023/01/28 08:45:55;;;;;;;;;21.25;17.50;;;;;;;;5105471;27;61748;-73
2023/01/28 08:48:21;;;;;;;;;17.25;13.75;;;;;;;;5105709;27;61714;-73
2023/01/28 08:50:46;;;;;;;;;23.25;16.75;;;;;;;;5104674;27;61808;-73
2023/01/28 08:53:13;;;;;;;;;26.75;15.00;;;;;;;;5105056;27;61889;-73
2023/01/28 08:55:38;;;;;;;;;24.25;17.75;;;;;;;;5105134;27;61855;-73
2023/01/28 08:58:04;;;;;;;;;16.50;16.50;;;;;;;;5104521;27;61906;-73
2023/01/28 09:00:30;;;;;;;;;26.50;16.25;;;;;;;;5104454;27;62066;-73
2023/01/28 09:02:55;;;;;;;;;19.50;16.50;;;;;;;;5104844;27;62532;-73
2023/01/28 09:05:20;;;;;;;;;23.25;16.50;;;;;;;;5104864;27;61990;-73
2023/01/28 09:07:46;;;;;;;;;22.00;13.75;;;;;;;;5104719;27;62123;-73
2023/01/28 09:10:12;;;;;;;;;25.00;17.00;;;;;;;;5104090;27;61762;-73
2023/01/28 09:12:37;;;;;;;;;21.75;17.25;;;;;;;;5103860;27;61850;-73
2023/01/28 09:15:02;;;;;;;;;30.75;20.25;;;;;;;;5104574;27;61901;-72
2023/01/28 09:17:28;;;;;;;;;22.50;18.50;;;;;;;;5104811;27;61877;-73
2023/01/28 09:19:53;;;;;;;;;19.75;14.25;;;;;;;;5104297;27;61780;-73
2023/01/28 09:22:18;;;;;;;;;23.50;18.25;;;;;;;;5104594;27;61961;-73
2023/01/28 09:24:44;;;;;;;;;19.75;15.50;;;;;;;;5104757;27;61981;-73
2023/01/28 09:27:09;;;;;;;;;28.00;21.75;;;;;;;;5102003;27;61790;-72
2023/01/28 09:29:34;;;;;;;;;26.25;18.00;;;;;;;;5102579;27;63710;-72
2023/01/28 09:31:59;;;;;;;;;29.50;19.50;;;;;;;;5104666;27;61942;-73
2023/01/28 09:34:25;;;;;;;;;23.25;14.25;;;;;;;;5104323;27;61771;-73
2023/01/28 09:36:50;;;;;;;;;23.25;19.50;;;;;;;;5104561;27;61936;-73
2023/01/28 09:39:15;;;;;;;;;20.75;17.50;;;;;;;;5102953;27;62062;-72
2023/01/28 09:41:44;;;;;;;;;24.75;15.75;;;;;;;;5103927;27;61759;-73
2023/01/28 09:44:20;;;;;;;;;32.00;19.75;;;;;;;;5103956;27;62202;-73
2023/01/28 09:46:45;;;;;;;;;24.50;15.50;;;;;;;;5104674;27;62102;-72
2023/01/28 09:49:16;;;;;;;;;19.50;12.25;;;;;;;;5103612;27;61863;-73
2023/01/28 09:51:46;;;;;;;;;43.25;38.00;;;;;;;;5103140;27;61859;-73
2023/01/28 09:54:20;;;;;;;;;22.75;18.50;;;;;;;;5104167;27;61771;-73
2023/01/28 09:56:49;;;;;;;;;17.75;15.75;;;;;;;;5103697;27;61913;-73
2023/01/28 09:59:19;;;;;;;;;26.00;15.75;;;;;;;;5103039;27;61735;-73
2023/01/28 10:01:46;;;;;;;;;18.25;14.25;;;;;;;;5103929;27;61906;-73
2023/01/28 10:04:12;;;;;;;;;20.50;11.25;;;;;;;;5103754;27;61691;-73
2023/01/28 10:06:56;;;;;;;;;26.75;15.75;;;;;;;;5104178;27;61696;-73
2023/01/28 10:09:21;;;;;;;;;22.75;15.75;;;;;;;;5102196;27;61873;-73
2023/01/28 10:11:55;;;;;;;;;20.00;18.75;;;;;;;;5103592;27;61739;-73
2023/01/28 10:14:34;;;;;;;;;14.25;13.75;;;;;;;;5103747;27;61822;-73
2023/01/28 10:17:05;;;;;;;;;19.50;16.50;;;;;;;;5104085;27;61747;-73
2023/01/28 10:19:35;;;;;;;;;27.00;21.75;;;;;;;;5101530;27;64701;-73
2023/01/28 10:22:08;;;;;;;;;16.25;11.75;;;;;;;;5103830;27;61814;-73
2023/01/28 10:24:35;;;;;;;;;13.50;13.50;;;;;;;;5103431;27;61883;-73
2023/01/28 10:27:02;;;;;;;;;25.00;17.75;;;;;;;;5103650;27;62105;-73
2023/01/28 10:29:32;;;;;;;;;26.25;16.25;;;;;;;;5102630;27;61924;-73
2023/01/28 10:32:03;;;;;;;;;17.25;14.75;;;;;;;;5103519;27;61842;-73
2023/01/28 10:34:28;;;;;;;;;18.50;14.75;;;;;;;;5103337;27;61762;-73
2023/01/28 10:36:55;;;;;;;;;21.25;14.75;;;;;;;;5103910;27;61895;-73
2023/01/28 10:39:21;;;;;;;;;24.50;18.25;;;;;;;;5101217;27;61759;-72
2023/01/28 10:41:47;;;;;;;;;25.50;13.25;;;;;;;;5103434;27;61739;-73
2023/01/28 10:44:17;;;;;;;;;12.50;10.75;;;;;;;;5103034;27;61930;-73
2023/01/28 10:46:45;;;;;;;;;21.75;15.00;;;;;;;;5102185;27;61907;-73
2023/01/28 10:49:15;;;;;;;;;21.25;15.25;;;;;;;;5101505;27;62083;-72
2023/01/28 10:51:41;;;;;;;;;20.00;15.50;;;;;;;;5101944;27;61816;-73
2023/01/28 10:54:19;;;;;;;;;19.75;17.25;;;;;;;;5102783;27;61908;-72
2023/01/28 10:56:44;;;;;;;;;18.25;13.75;;;;;;;;5103523;27;61883;-73
2023/01/28 10:59:40;;;;;;;;;17.75;14.25;;;;;;;;5102555;27;61858;-73
2023/01/28 11:02:21;;;;;;;;;14.75;13.00;;;;;;;;5102187;27;61940;-72
2023/01/28 11:04:46;;;;;;;;;17.50;15.75;;;;;;;;5103192;27;61940;-72
2023/01/28 11:07:19;;;;;;;;;22.00;14.75;;;;;;;;5101664;27;62030;-73
2023/01/28 11:09:49;;;;;;;;;20.75;14.00;;;;;;;;5102202;27;61774;-73
2023/01/28 11:12:22;;;;;;;;;19.75;18.00;;;;;;;;5101371;27;61941;-73
2023/01/28 11:14:55;;;;;;;;;25.75;18.25;;;;;;;;5102696;27;61880;-72
2023/01/28 11:17:23;;;;;;;;;29.50;19.00;;;;;;;;5103168;27;61821;-73
2023/01/28 11:19:49;;;;;;;;;21.00;17.50;;;;;;;;5101073;27;64922;-73
2023/01/28 11:22:20;;;;;;;;;28.75;19.00;;;;;;;;5102634;27;61867;-73
2023/01/28 11:24:46;;;;;;;;;31.75;15.25;;;;;;;;5102748;27;61911;-73
2023/01/28 11:27:16;;;;;;;;;17.75;15.00;;;;;;;;5102789;27;61977;-72
2023/01/28 11:29:41;;;;;;;;;33.00;23.00;;;;;;;;5102150;27;61797;-72
2023/01/28 11:32:17;;;;;;;;;29.00;18.00;;;;;;;;5102820;27;61731;-72
2023/01/28 11:34:47;;;;;;;;;21.00;16.00;;;;;;;;5102835;27;61917;-73
2023/01/28 11:37:15;;;;;;;;;15.00;12.25;;;;;;;;5102508;27;61911;-73
2023/01/28 11:39:40;;;;;;;;;21.25;15.25;;;;;;;;5101281;27;61739;-72
2023/01/28 11:42:14;;;;;;;;;30.00;21.25;;;;;;;;5102194;27;61992;-73
2023/01/28 11:44:40;;;;;;;;;32.75;19.50;;;;;;;;5102486;27;61794;-73
2023/01/28 11:47:11;;;;;;;;;19.25;14.50;;;;;;;;5102935;27;61902;-73
2023/01/28 11:49:37;;;;;;;;;23.75;16.25;;;;;;;;5100077;27;65027;-73
2023/01/28 11:52:02;;;;;;;;;24.50;15.25;;;;;;;;5102392;27;61895;-73
2023/01/28 11:54:44;;;;;;;;;20.00;15.75;;;;;;;;5101136;27;61857;-73
2023/01/28 11:57:18;;;;;;;;;23.50;16.50;;;;;;;;5102528;27;61668;-74
2023/01/28 11:59:47;;;;;;;;;23.00;18.00;;;;;;;;5101988;27;61721;-73
2023/01/28 12:02:18;;;;;;;;;25.00;16.75;;;;;;;;5101260;27;62035;-72
2023/01/28 12:05:09;;;;;;;;;24.00;18.50;;;;;;;;5102472;27;61949;-73
2023/01/28 12:07:41;;;;;;;;;25.00;15.25;;;;;;;;5093037;27;61867;-72
2023/01/28 12:10:09;;;;;;;;;17.75;13.75;;;;;;;;5101938;27;61947;-73
2023/01/28 12:12:40;;;;;;;;;21.00;19.75;;;;;;;;5101707;27;61722;-73
2023/01/28 12:15:09;;;;;;;;;23.25;16.25;;;;;;;;5104960;27;61720;-73
2023/01/28 12:17:46;;;;;;;;;24.50;16.00;;;;;;;;5105909;27;61754;-73
2023/01/28 12:20:14;;;;;;;;;24.75;19.25;;;;;;;;5104593;27;61944;-73
2023/01/28 12:22:57;;;;;;;;;17.00;13.00;;;;;;;;5105556;27;61739;-73
2023/01/28 12:25:23;;;;;;;;;21.25;16.25;;;;;;;;5105696;27;61898;-73
2023/01/28 12:28:11;;;;;;;;;21.75;13.00;;;;;;;;5105488;27;61818;-73
2023/01/28 12:30:42;;;;;;;;;22.25;15.50;;;;;;;;5105119;27;61806;-73
2023/01/28 12:33:20;;;;;;;;;18.00;11.75;;;;;;;;5104153;27;62083;-73
2023/01/28 12:35:50;;;;;;;;;18.50;11.75;;;;;;;;5103876;27;61790;-73
2023/01/28 12:38:21;;;;;;;;;23.50;18.50;;;;;;;;5105015;27;61874;-73
2023/01/28 12:40:57;;;;;;;;;20.00;14.25;;;;;;;;5104727;27;61845;-73
2023/01/28 12:43:28;;;;;;;;;21.25;11.75;;;;;;;;5105271;27;61926;-73
2023/01/28 12:46:01;;;;;;;;;20.50;16.50;;;;;;;;5105644;27;61913;-73
2023/01/28 12:48:31;;;;;;;;;21.25;11.50;;;;;;;;5104358;27;61964;-73
2023/01/28 12:51:01;;;;;;;;;13.50;11.25;;;;;;;;5104591;27;61788;-73
2023/01/28 12:53:30;;;;;;;;;18.25;13.75;;;;;;;;5103912;27;61915;-73
2023/01/28 12:56:16;;;;;;;;;17.75;13.25;;;;;;;;5105348;27;61750;-73
2023/01/28 12:58:49;;;;;;;;;13.00;11.50;;;;;;;;5103165;27;62281;-73
2023/01/28 13:01:16;;;;;;;;;14.00;11.25;;;;;;;;5104764;27;61909;-73
2023/01/28 13:03:51;;;;;;;;;19.50;14.00;;;;;;;;5104704;27;62102;-73
2023/01/28 13:06:21;;;;;;;;;20.50;16.00;;;;;;;;5103873;27;61776;-73
2023/01/28 13:08:47;;;;;;;;;17.75;13.50;;;;;;;;5105024;27;61789;-73
2023/01/28 13:11:14;;;;;;;;;13.75;10.75;;;;;;;;5104848;27;61801;-73
2023/01/28 13:13:41;;;;;;;;;11.50;11.50;;;;;;;;5103015;27;61942;-72
2023/01/28 13:16:07;;;;;;;;;20.00;18.00;;;;;;;;5105273;27;61810;-73
2023/01/28 13:18:42;;;;;;;;;15.75;14.75;;;;;;;;5105028;27;61786;-73
2023/01/28 13:21:23;;;;;;;;;28.25;15.75;;;;;;;;5103098;27;64808;-73
2023/01/28 13:23:48;;;;;;;;;15.25;11.00;;;;;;;;5104834;27;61676;-72
2023/01/28 13:26:16;;;;;;;;;29.50;15.50;;;;;;;;5103880;27;62028;-73
2023/01/28 13:28:42;;;;;;;;;25.25;18.00;;;;;;;;5104909;27;61938;-73
2023/01/28 13:31:11;;;;;;;;;16.75;15.25;;;;;;;;5104331;27;62075;-73
2023/01/28 13:33:38;;;;;;;;;23.25;15.00;;;;;;;;5102910;27;62007;-73
2023/01/28 13:36:24;;;;;;;;;17.50;15.00;;;;;;;;5104764;27;61894;-72
2023/01/28 13:38:59;;;;;;;;;15.00;12.00;;;;;;;;5099663;27;62076;-73
2023/01/28 13:41:35;;;;;;;;;19.75;14.25;;;;;;;;5102672;27;61984;-73
2023/01/28 13:44:00;;;;;;;;;17.00;10.00;;;;;;;;5102925;27;61961;-73
2023/01/28 13:46:27;;;;;;;;;26.75;18.25;;;;;;;;5103340;27;61828;-73
2023/01/28 13:48:54;;;;;;;;;26.75;15.75;;;;;;;;5104036;27;61873;-73
2023/01/28 13:51:26;;;;;;;;;23.75;15.25;;;;;;;;5102720;27;63720;-73
2023/01/28 13:54:10;;;;;;;;;21.00;19.00;;;;;;;;5103111;27;61936;-73
2023/01/28 13:56:40;;;;;;;;;16.75;10.25;;;;;;;;5104734;27;62018;-73
2023/01/28 13:59:15;;;;;;;;;16.25;13.00;;;;;;;;5104157;27;61840;-73
2023/01/28 14:01:57;;;;;;;;;17.75;14.75;;;;;;;;5103420;27;61844;-73
2023/01/28 14:04:31;;;;;;;;;14.75;13.50;;;;;;;;5104425;27;62098;-73
2023/01/28 14:06:56;;;;;;;;;18.50;14.00;;;;;;;;5104006;27;62642;-73
2023/01/28 14:09:28;;;;;;;;;16.25;13.75;;;;;;;;5104168;27;62624;-73
2023/01/28 14:12:00;;;;;;;;;18.25;14.50;;;;;;;;5103454;27;61694;-73
2023/01/28 14:14:25;;;;;;;;;21.25;11.75;;;;;;;;5104145;27;61802;-73
2023/01/28 14:16:59;;;;;;;;;20.75;15.75;;;;;;;;5103728;27;61776;-73
2023/01/28 14:19:28;;;;;;;;;20.50;15.75;;;;;;;;5104444;27;61958;-73
2023/01/28 14:21:54;;;;;;;;;26.00;14.25;;;;;;;;5103420;27;61756;-73
2023/01/28 14:24:20;;;;;;;;;15.75;15.00;;;;;;;;5103943;27;61830;-72
2023/01/28 14:27:00;;;;;;;;;19.00;14.00;;;;;;;;5102434;27;61916;-73
2023/01/28 14:29:31;;;;;;;;;22.00;16.00;;;;;;;;5104224;27;61909;-73
2023/01/28 14:31:57;;;;;;;;;19.25;16.75;;;;;;;;5101462;27;63570;-73
2023/01/28 14:34:26;;;;;;;;;22.75;15.25;;;;;;;;5102229;27;61889;-74
2023/01/28 14:36:55;;;;;;;;;33.50;21.75;;;;;;;;5103279;27;61950;-74
2023/01/28 14:39:24;;;;;;;;;14.75;14.75;;;;;;;;5103235;27;61795;-73
2023/01/28 14:41:51;;;;;;;;;17.00;14.25;;;;;;;;5103041;27;62462;-73
2023/01/28 14:44:37;;;;;;;;;20.00;16.75;;;;;;;;5103358;27;61772;-73
2023/01/28 14:47:02;;;;;;;;;25.50;18.50;;;;;;;;5103314;27;61798;-72
2023/01/28 14:49:51;;;;;;;;;23.00;18.00;;;;;;;;5102531;27;62130;-73